Time;durP1;ratioP1;P1;durP2;ratioP2;P2;SDS_P1;SDS_P2;PMS_P1;PMS_P2;Temp;Humidity;BMP_temperature;BMP_pressure;BME280_temperature;BME280_humidity;BME280_pressure;Samples;Min_cycle;Max_cycle;Signal;HPM_P1;HPM_P2
2021/01/20 00:02:00;;;;;;;14.30;7.07;;;11.50;89.20;;;;;;5055388;28;20045;-77
2021/01/20 00:04:26;;;;;;;15.73;6.25;;;11.60;89.40;;;;;;5055005;28;20044;-77
2021/01/20 00:06:52;;;;;;;12.18;5.75;;;11.50;89.30;;;;;;5054857;28;20033;-77
2021/01/20 00:09:18;;;;;;;11.88;6.05;;;11.50;89.30;;;;;;5055085;28;20484;-77
2021/01/20 00:11:43;;;;;;;13.77;5.90;;;11.60;89.40;;;;;;5055151;28;20069;-77
2021/01/20 00:14:13;;;;;;;16.75;6.65;;;11.50;89.50;;;;;;5054852;28;20048;-77
2021/01/20 00:16:38;;;;;;;13.35;5.82;;;11.60;89.50;;;;;;5055175;28;20492;-77
2021/01/20 00:19:04;;;;;;;15.90;6.28;;;11.70;89.70;;;;;;5054976;28;20048;-77
2021/01/20 00:21:30;;;;;;;15.52;5.68;;;11.60;89.70;;;;;;5054866;28;20043;-77
2021/01/20 00:23:56;;;;;;;12.32;5.85;;;11.70;89.80;;;;;;5054370;28;20037;-77
2021/01/20 00:26:22;;;;;;;16.23;6.05;;;11.60;89.80;;;;;;5054153;28;20045;-77
2021/01/20 00:28:48;;;;;;;14.38;6.10;;;11.70;89.80;;;;;;5054129;28;20519;-77
2021/01/20 00:31:14;;;;;;;14.45;5.32;;;11.60;89.80;;;;;;5054488;28;20041;-77
2021/01/20 00:33:39;;;;;;;11.88;5.22;;;11.50;89.80;;;;;;5050734;28;20362;-77
2021/01/20 00:36:06;;;;;;;14.13;5.68;;;11.60;89.90;;;;;;5033671;28;20029;-77
2021/01/20 00:38:32;;;;;;;11.63;5.50;;;11.80;90.10;;;;;;5034467;28;20504;-77
2021/01/20 00:40:58;;;;;;;12.27;4.93;;;11.70;90.00;;;;;;5034151;28;20072;-77
2021/01/20 00:43:24;;;;;;;16.55;5.15;;;11.60;90.00;;;;;;5034246;28;20048;-77
2021/01/20 00:45:50;;;;;;;12.52;4.97;;;11.70;90.10;;;;;;5034111;28;20072;-77
2021/01/20 00:48:16;;;;;;;11.18;4.88;;;11.70;90.10;;;;;;5034440;28;20042;-77
2021/01/20 00:50:41;;;;;;;9.65;4.45;;;11.70;90.10;;;;;;5033975;28;20033;-77
2021/01/20 00:53:07;;;;;;;15.18;4.95;;;11.70;90.20;;;;;;5034257;28;20098;-77
2021/01/20 00:55:33;;;;;;;14.85;4.18;;;11.60;90.20;;;;;;5033930;28;20053;-77
2021/01/20 00:57:59;;;;;;;15.25;4.75;;;11.70;90.20;;;;;;5034225;28;20120;-77
2021/01/20 01:00:25;;;;;;;13.55;4.80;;;11.70;90.20;;;;;;5034339;28;20583;-77
2021/01/20 01:02:51;;;;;;;10.43;4.20;;;11.70;90.30;;;;;;5033649;28;20048;-77
2021/01/20 01:05:17;;;;;;;10.27;4.05;;;11.60;90.30;;;;;;5033823;28;20493;-77
2021/01/20 01:07:43;;;;;;;14.85;4.88;;;11.60;90.30;;;;;;5034068;28;20068;-77
2021/01/20 01:10:10;;;;;;;12.80;4.70;;;11.60;90.30;;;;;;5034306;28;20485;-77
2021/01/20 01:12:36;;;;;;;11.65;4.30;;;11.60;90.30;;;;;;5033716;28;20037;-77
2021/01/20 01:15:04;;;;;;;9.93;4.10;;;11.60;90.40;;;;;;5033872;28;20053;-77
2021/01/20 01:17:30;;;;;;;13.95;3.72;;;11.70;90.40;;;;;;5033760;28;20033;-77
2021/01/20 01:19:56;;;;;;;15.68;3.75;;;11.30;90.40;;;;;;5033743;28;20653;-77
2021/01/20 01:22:21;;;;;;;12.13;3.88;;;11.70;90.50;;;;;;5033251;28;20132;-76
2021/01/20 01:24:47;;;;;;;9.65;3.88;;;11.70;90.50;;;;;;5033381;28;20049;-77
2021/01/20 01:27:13;;;;;;;12.38;3.67;;;11.70;90.50;;;;;;5034048;28;20570;-77
2021/01/20 01:29:39;;;;;;;14.80;3.90;;;11.60;90.50;;;;;;5033771;28;20040;-77
2021/01/20 01:32:06;;;;;;;9.23;3.13;;;11.90;90.60;;;;;;5033583;28;20067;-77
2021/01/20 01:34:33;;;;;;;9.02;3.63;;;11.70;90.50;;;;;;5033709;28;20041;-76
2021/01/20 01:36:59;;;;;;;12.63;3.63;;;11.60;90.50;;;;;;5033328;28;20512;-76
2021/01/20 01:39:25;;;;;;;11.52;3.70;;;11.60;90.50;;;;;;5033288;28;20053;-76
2021/01/20 01:41:51;;;;;;;10.88;3.58;;;11.70;90.50;;;;;;5033407;28;20041;-77
2021/01/20 01:44:18;;;;;;;10.82;3.55;;;11.60;90.50;;;;;;5033467;28;20041;-77
2021/01/20 01:46:44;;;;;;;11.73;4.22;;;11.70;90.50;;;;;;5034950;28;20142;-77
2021/01/20 01:49:10;;;;;;;17.27;4.47;;;11.50;90.50;;;;;;5037155;28;20501;-77
2021/01/20 01:51:36;;;;;;;18.67;3.80;;;11.60;90.60;;;;;;5037232;28;20589;-77
2021/01/20 01:54:02;;;;;;;16.58;3.50;;;11.70;90.60;;;;;;5037524;28;20057;-77
2021/01/20 01:56:28;;;;;;;13.52;3.45;;;11.70;90.50;;;;;;5037173;28;20512;-77
2021/01/20 01:58:55;;;;;;;14.35;3.90;;;11.70;90.50;;;;;;5037161;28;20374;-77
2021/01/20 02:01:21;;;;;;;11.70;3.75;;;11.50;90.50;;;;;;5037198;28;20443;-77
2021/01/20 02:03:51;;;;;;;14.43;3.60;;;12.00;90.60;;;;;;5037456;28;20041;-77
2021/01/20 02:06:17;;;;;;;13.05;3.67;;;11.60;90.50;;;;;;5037128;28;20516;-77
2021/01/20 02:08:44;;;;;;;10.20;3.28;;;11.60;90.50;;;;;;5036915;28;20072;-77
2021/01/20 02:11:45;;;;;;;11.85;3.15;;;11.60;90.60;;;;;;5036682;28;20049;-77
2021/01/20 02:14:25;;;;;;;12.45;2.90;;;12.40;90.80;;;;;;5037365;28;20033;-77
2021/01/20 02:17:06;;;;;;;9.13;3.28;;;11.50;90.60;;;;;;5037157;28;20033;-77
2021/01/20 02:19:55;;;;;;;15.55;3.67;;;11.60;90.60;;;;;;5037047;28;20128;-77
2021/01/20 02:22:37;;;;;;;17.60;3.42;;;11.50;90.60;;;;;;5027028;28;20054;-77
2021/01/20 02:25:32;;;;;;;9.63;3.20;;;11.50;90.60;;;;;;5037027;28;20056;-77
2021/01/20 02:28:10;;;;;;;9.80;3.20;;;11.60;90.60;;;;;;5013425;28;20508;-77
2021/01/20 02:30:38;;;;;;;15.75;3.50;;;11.50;90.60;;;;;;5037061;28;20043;-77
2021/01/20 02:33:06;;;;;;;11.73;3.33;;;11.60;90.60;;;;;;5036934;28;20050;-77
2021/01/20 02:35:33;;;;;;;16.27;3.50;;;11.50;90.60;;;;;;5036829;28;20045;-77
2021/01/20 02:38:01;;;;;;;12.23;3.00;;;11.50;90.60;;;;;;5037016;28;20124;-77
2021/01/20 02:40:27;;;;;;;14.23;3.53;;;11.50;90.60;;;;;;5037129;28;20489;-77
2021/01/20 02:42:53;;;;;;;13.15;3.10;;;11.50;90.60;;;;;;5036523;28;20041;-77
2021/01/20 02:45:19;;;;;;;13.07;3.42;;;11.50;90.70;;;;;;5037023;28;20547;-77
2021/01/20 02:47:47;;;;;;;11.65;3.03;;;11.50;90.70;;;;;;5036251;28;20033;-77
2021/01/20 02:50:15;;;;;;;9.35;2.72;;;11.40;90.70;;;;;;5037155;28;20045;-77
2021/01/20 02:52:49;;;;;;;14.68;3.15;;;11.40;90.70;;;;;;5036309;28;20129;-77
2021/01/20 02:55:21;;;;;;;10.85;3.00;;;11.40;90.70;;;;;;5036598;28;20048;-77
2021/01/20 02:57:54;;;;;;;12.75;2.90;;;11.40;90.80;;;;;;5035391;28;20064;-77
2021/01/20 03:00:21;;;;;;;9.20;2.83;;;11.40;90.80;;;;;;5036721;28;20048;-77
2021/01/20 03:02:51;;;;;;;14.80;3.00;;;11.40;90.80;;;;;;5036043;28;20037;-77
2021/01/20 03:05:18;;;;;;;11.88;2.95;;;11.30;90.90;;;;;;5036183;28;20421;-77
2021/01/20 03:07:44;;;;;;;15.45;3.08;;;11.30;90.90;;;;;;5036416;28;20037;-77
2021/01/20 03:10:11;;;;;;;11.43;2.63;;;11.40;91.00;;;;;;5036709;28;20493;-77
2021/01/20 03:12:38;;;;;;;11.63;2.72;;;11.30;90.90;;;;;;5036076;28;20038;-77
2021/01/20 03:15:09;;;;;;;14.35;3.05;;;11.30;91.00;;;;;;5036310;28;20049;-77
2021/01/20 03:17:35;;;;;;;10.13;3.08;;;11.30;91.00;;;;;;5051179;28;20041;-77
2021/01/20 03:20:01;;;;;;;15.95;3.17;;;11.40;91.00;;;;;;5036199;28;20051;-77
2021/01/20 03:22:27;;;;;;;13.40;3.60;;;11.40;91.00;;;;;;5036150;28;20077;-77
2021/01/20 03:24:53;;;;;;;13.75;3.53;;;11.50;91.10;;;;;;5035446;28;20536;-77
2021/01/20 03:27:18;;;;;;;11.23;3.28;;;11.30;91.10;;;;;;5035991;28;20037;-77
2021/01/20 03:29:44;;;;;;;13.80;3.22;;;11.40;91.10;;;;;;5035968;28;20051;-77
2021/01/20 03:32:10;;;;;;;16.42;3.75;;;11.40;91.10;;;;;;5035785;28;20045;-77
2021/01/20 03:34:36;;;;;;;13.60;3.67;;;11.50;91.10;;;;;;5035509;28;20037;-76
2021/01/20 03:37:03;;;;;;;16.48;3.17;;;11.40;91.00;;;;;;5035476;28;20144;-77
2021/01/20 03:39:29;;;;;;;17.63;3.40;;;11.30;91.00;;;;;;5035487;28;20033;-77
2021/01/20 03:41:55;;;;;;;14.95;3.42;;;11.40;91.00;;;;;;5036306;28;20052;-77
2021/01/20 03:44:22;;;;;;;12.18;3.30;;;11.30;91.00;;;;;;5035374;28;20037;-77
2021/01/20 03:46:50;;;;;;;17.55;3.53;;;11.40;91.00;;;;;;5035178;28;20061;-77
2021/01/20 03:49:17;;;;;;;15.68;3.22;;;11.40;91.00;;;;;;5035361;28;20052;-77
2021/01/20 03:51:45;;;;;;;11.38;3.50;;;11.30;91.00;;;;;;5035439;28;20087;-76
2021/01/20 03:54:12;;;;;;;12.70;3.35;;;11.30;91.20;;;;;;5035268;28;20132;-77
2021/01/20 03:56:38;;;;;;;12.93;3.40;;;11.40;91.00;;;;;;5034965;28;20025;-77
2021/01/20 03:59:04;;;;;;;15.77;3.97;;;11.40;91.00;;;;;;5034718;28;20045;-77
2021/01/20 04:01:30;;;;;;;16.42;3.95;;;11.30;90.90;;;;;;5034946;28;20172;-77
2021/01/20 04:03:56;;;;;;;15.90;4.05;;;11.30;91.00;;;;;;5035119;28;20555;-77
2021/01/20 04:06:22;;;;;;;13.15;3.92;;;11.40;91.00;;;;;;5034985;28;20126;-77
2021/01/20 04:08:49;;;;;;;15.43;4.38;;;11.40;91.00;;;;;;5034865;28;20045;-77
2021/01/20 04:11:16;;;;;;;14.63;4.30;;;11.40;91.00;;;;;;5034354;28;20523;-77
2021/01/20 04:13:42;;;;;;;18.25;4.95;;;11.20;90.90;;;;;;5035004;28;20128;-77
2021/01/20 04:16:07;;;;;;;21.08;4.90;;;11.40;91.00;;;;;;5034817;28;20117;-77
2021/01/20 04:18:33;;;;;;;18.25;4.57;;;11.40;91.00;;;;;;5034665;28;20519;-77
2021/01/20 04:20:59;;;;;;;18.48;4.70;;;11.30;91.00;;;;;;5034761;28;20076;-77
2021/01/20 04:23:25;;;;;;;15.63;4.20;;;11.30;91.00;;;;;;5034624;28;20518;-77
2021/01/20 04:25:51;;;;;;;13.38;3.83;;;11.20;90.90;;;;;;5034139;28;20128;-77
2021/01/20 04:28:17;;;;;;;13.23;4.07;;;11.30;91.00;;;;;;5049849;28;20042;-77
2021/01/20 04:30:42;;;;;;;15.50;3.80;;;11.30;91.00;;;;;;5034455;28;20546;-77
2021/01/20 04:33:08;;;;;;;11.07;3.13;;;11.30;91.00;;;;;;5034384;28;20048;-77
2021/01/20 04:35:34;;;;;;;14.45;3.75;;;11.30;90.90;;;;;;5033922;28;20053;-77
2021/01/20 04:38:01;;;;;;;17.42;3.30;;;11.20;90.90;;;;;;5034117;28;20519;-77
2021/01/20 04:40:27;;;;;;;8.32;3.03;;;11.40;91.00;;;;;;5034618;28;20171;-77
2021/01/20 04:42:55;;;;;;;14.65;3.67;;;11.30;90.90;;;;;;5033971;28;20048;-77
2021/01/20 04:45:21;;;;;;;19.80;3.65;;;11.40;90.90;;;;;;5034206;28;20547;-77
2021/01/20 04:47:49;;;;;;;16.67;3.25;;;11.30;90.90;;;;;;5034076;28;20037;-77
2021/01/20 04:50:17;;;;;;;15.35;3.33;;;11.30;90.90;;;;;;5034259;28;20096;-77
2021/01/20 04:52:46;;;;;;;15.60;3.28;;;11.30;90.90;;;;;;5033950;28;20047;-77
2021/01/20 04:55:16;;;;;;;14.77;3.10;;;11.30;90.90;;;;;;5034041;28;20496;-77
2021/01/20 04:57:43;;;;;;;13.02;3.10;;;11.30;90.80;;;;;;5034419;28;20042;-77
2021/01/20 05:00:10;;;;;;;13.70;2.85;;;11.30;90.80;;;;;;5033753;28;20115;-77
2021/01/20 05:02:36;;;;;;;11.55;2.90;;;11.30;90.90;;;;;;5034233;28;20037;-77
2021/01/20 05:05:04;;;;;;;15.40;2.90;;;11.20;90.90;;;;;;5032781;28;20472;-77
2021/01/20 05:07:30;;;;;;;14.60;2.83;;;11.30;90.90;;;;;;5033887;28;20257;-77
2021/01/20 05:09:56;;;;;;;13.57;2.90;;;11.10;90.90;;;;;;5034297;28;20477;-77
2021/01/20 05:12:41;;;;;;;16.80;2.63;;;11.20;90.90;;;;;;5034116;28;20034;-77
2021/01/20 05:15:09;;;;;;;11.80;2.47;;;11.20;91.00;;;;;;5033929;28;20048;-77
2021/01/20 05:17:55;;;;;;;13.80;2.53;;;11.20;91.00;;;;;;5033696;28;20044;-77
2021/01/20 05:20:37;;;;;;;15.85;2.78;;;11.10;91.00;;;;;;5033346;28;20033;-77
2021/01/20 05:23:08;;;;;;;15.07;2.53;;;11.10;91.00;;;;;;5037229;28;20049;-77
2021/01/20 05:25:39;;;;;;;17.25;2.58;;;11.20;91.00;;;;;;5037607;28;20136;-77
2021/01/20 05:28:18;;;;;;;20.80;2.92;;;11.20;91.10;;;;;;5037968;28;20049;-77
2021/01/20 05:30:55;;;;;;;12.05;2.70;;;11.20;91.10;;;;;;5038118;28;20053;-77
2021/01/20 05:33:22;;;;;;;17.52;2.85;;;11.20;91.10;;;;;;5037839;28;20095;-77
2021/01/20 05:36:05;;;;;;;14.75;2.67;;;11.20;91.10;;;;;;5037931;28;20084;-77
2021/01/20 05:38:51;;;;;;;17.90;3.00;;;11.10;91.10;;;;;;5037817;28;20063;-77
2021/01/20 05:41:43;;;;;;;15.93;2.72;;;11.10;91.20;;;;;;5037546;28;20071;-77
2021/01/20 05:44:12;;;;;;;17.40;2.83;;;11.20;91.20;;;;;;5034531;28;20044;-77
2021/01/20 05:46:40;;;;;;;15.35;2.60;;;10.90;91.00;;;;;;5037447;28;20041;-77
2021/01/20 05:49:07;;;;;;;18.40;3.28;;;11.20;91.20;;;;;;5037282;28;20042;-77
2021/01/20 05:51:41;;;;;;;19.33;2.83;;;11.10;91.10;;;;;;5036861;28;20412;-77
2021/01/20 05:54:08;;;;;;;15.18;3.15;;;11.20;91.20;;;;;;5037358;28;20033;-78
2021/01/20 05:56:34;;;;;;;20.33;3.40;;;11.20;91.20;;;;;;5037557;28;20121;-77
2021/01/20 05:59:01;;;;;;;21.85;3.30;;;11.20;91.20;;;;;;5037211;28;20103;-77
2021/01/20 06:01:28;;;;;;;20.58;3.13;;;11.20;91.20;;;;;;5037059;28;20124;-77
2021/01/20 06:03:54;;;;;;;20.08;3.10;;;11.30;91.30;;;;;;5036860;28;20088;-77
2021/01/20 06:06:21;;;;;;;19.25;3.28;;;11.20;91.20;;;;;;5037073;28;20072;-77
2021/01/20 06:08:47;;;;;;;21.23;3.40;;;11.30;91.30;;;;;;5036184;28;20049;-77
2021/01/20 06:11:16;;;;;;;19.73;3.17;;;11.20;91.30;;;;;;5036540;28;20519;-77
2021/01/20 06:13:41;;;;;;;12.52;3.30;;;11.20;91.30;;;;;;5037077;28;20041;-77
2021/01/20 06:16:17;;;;;;;17.92;3.22;;;11.30;91.30;;;;;;5037116;28;20042;-77
2021/01/20 06:18:52;;;;;;;19.48;3.10;;;11.30;91.40;;;;;;5037079;28;20040;-77
2021/01/20 06:21:18;;;;;;;18.40;3.00;;;11.30;91.40;;;;;;5036256;28;20520;-78
2021/01/20 06:23:50;;;;;;;23.58;3.95;;;11.20;91.30;;;;;;5036890;28;20126;-77
2021/01/20 06:26:16;;;;;;;19.70;3.42;;;11.30;91.50;;;;;;5036595;28;20033;-77
2021/01/20 06:28:53;;;;;;;18.13;3.15;;;11.30;91.40;;;;;;5036634;28;20041;-77
2021/01/20 06:31:20;;;;;;;17.20;2.85;;;11.20;91.40;;;;;;5035937;28;20033;-78
2021/01/20 06:33:46;;;;;;;20.27;3.20;;;11.40;91.50;;;;;;5036446;28;20068;-78
2021/01/20 06:36:30;;;;;;;17.15;3.28;;;11.30;91.40;;;;;;5036164;28;20122;-78
2021/01/20 06:38:56;;;;;;;21.98;3.42;;;11.20;91.40;;;;;;5035332;28;20044;-77
2021/01/20 06:41:39;;;;;;;21.35;3.38;;;11.20;91.40;;;;;;5035340;28;20120;-79
2021/01/20 06:44:10;;;;;;;19.17;3.58;;;11.30;91.50;;;;;;5036120;28;20511;-78
2021/01/20 06:46:37;;;;;;;16.05;3.30;;;11.30;91.50;;;;;;5034463;28;20120;-79
2021/01/20 06:49:07;;;;;;;18.40;3.42;;;11.30;91.40;;;;;;5040845;28;20056;-78
2021/01/20 06:51:33;;;;;;;16.50;3.20;;;11.30;91.50;;;;;;5049654;28;20045;-77
2021/01/20 06:54:05;;;;;;;20.50;3.15;;;11.30;91.50;;;;;;5040468;28;20160;-76
2021/01/20 06:56:31;;;;;;;15.68;3.58;;;11.30;91.50;;;;;;5034587;28;20049;-77
2021/01/20 06:59:29;;;;;;;14.77;3.40;;;11.30;91.50;;;;;;5034795;28;20041;-76
2021/01/20 07:02:04;;;;;;;20.23;4.07;;;11.20;91.50;;;;;;5034938;28;20075;-77
2021/01/20 07:04:39;;;;;;;;;;;11.30;91.50;;;;;;5040449;28;20068;-76
2021/01/20 07:07:12;;;;;;;16.15;3.35;;;11.40;91.50;;;;;;5055755;28;19913;-77
2021/01/20 07:09:50;;;;;;;19.90;3.65;;;11.30;91.50;;;;;;5056237;28;20060;-77
2021/01/20 07:12:21;;;;;;;20.23;3.83;;;11.30;91.50;;;;;;5055781;28;20041;-77
2021/01/20 07:14:48;;;;;;;18.83;3.63;;;11.30;91.50;;;;;;5056132;28;20049;-77
2021/01/20 07:17:16;;;;;;;16.67;3.50;;;11.10;91.40;;;;;;5056064;28;20045;-77
2021/01/20 07:19:43;;;;;;;23.33;3.97;;;11.40;91.60;;;;;;5055778;28;20063;-80
2021/01/20 07:22:10;;;;;;;18.73;3.25;;;11.30;91.50;;;;;;5055767;28;20587;-78
2021/01/20 07:24:36;;;;;;;20.15;3.72;;;11.30;91.50;;;;;;5055355;28;20135;-77
2021/01/20 07:27:06;;;;;;;18.30;3.45;;;11.20;91.50;;;;;;5055403;28;20045;-76
2021/01/20 07:29:32;;;;;;;20.65;3.38;;;11.40;91.60;;;;;;5055372;28;20492;-76
2021/01/20 07:32:00;;;;;;;20.90;4.03;;;11.40;91.60;;;;;;5055483;28;20040;-77
2021/01/20 07:34:38;;;;;;;22.38;3.53;;;11.40;91.50;;;;;;5055709;28;20036;-77
2021/01/20 07:37:12;;;;;;;14.32;3.10;;;11.50;91.50;;;;;;5053840;28;20067;-76
2021/01/20 07:39:39;;;;;;;22.40;4.13;;;11.50;91.60;;;;;;5055035;28;20037;-78
2021/01/20 07:42:05;;;;;;;23.90;3.70;;;11.40;91.50;;;;;;5054867;28;20102;-77
2021/01/20 07:44:33;;;;;;;20.92;3.67;;;11.50;91.50;;;;;;5054370;28;20068;-76
2021/01/20 07:47:00;;;;;;;16.83;3.08;;;11.50;91.50;;;;;;5055179;28;20037;-75
2021/01/20 07:49:26;;;;;;;19.45;3.65;;;11.50;91.50;;;;;;5054761;28;20029;-76
2021/01/20 07:52:11;;;;;;;21.45;3.78;;;11.50;91.50;;;;;;5054984;28;20051;-74
2021/01/20 07:54:42;;;;;;;16.83;3.63;;;11.50;91.50;;;;;;5054817;28;20028;-74
2021/01/20 07:57:13;;;;;;;21.58;3.78;;;11.50;91.50;;;;;;5054855;28;20044;-75
2021/01/20 07:59:39;;;;;;;17.85;3.38;;;11.60;91.50;;;;;;5054763;28;20036;-75
2021/01/20 08:02:13;;;;;;;22.30;3.83;;;11.60;91.50;;;;;;5052927;28;20049;-75
2021/01/20 08:04:39;;;;;;;18.17;4.43;;;11.40;91.50;;;;;;5054622;28;20041;-74
2021/01/20 08:07:06;;;;;;;21.55;4.07;;;11.60;91.50;;;;;;5054269;28;20037;-74
2021/01/20 08:09:43;;;;;;;20.38;4.10;;;11.60;91.50;;;;;;5054134;28;20104;-75
2021/01/20 08:12:15;;;;;;;20.95;3.95;;;11.60;91.50;;;;;;5053982;28;20092;-74
2021/01/20 08:14:43;;;;;;;22.27;4.13;;;11.60;91.50;;;;;;5034434;28;20033;-75
2021/01/20 08:17:11;;;;;;;22.08;3.47;;;11.70;91.60;;;;;;5049662;28;20044;-74
2021/01/20 08:19:38;;;;;;;23.05;3.90;;;11.80;91.50;;;;;;5039695;28;20034;-75
2021/01/20 08:22:12;;;;;;;18.83;3.38;;;11.80;91.80;;;;;;5037958;28;20049;-75
2021/01/20 08:24:50;;;;;;;17.67;3.50;;;11.80;91.50;;;;;;5032510;28;20057;-75
2021/01/20 08:27:25;;;;;;;20.35;3.67;;;11.80;91.50;;;;;;5033254;28;20037;-75
2021/01/20 08:29:52;;;;;;;17.90;3.55;;;12.00;91.60;;;;;;5033779;28;20515;-75
2021/01/20 08:32:18;;;;;;;18.00;3.90;;;12.00;91.50;;;;;;5033651;28;20045;-75
2021/01/20 08:34:45;;;;;;;17.67;3.20;;;12.00;91.50;;;;;;5033526;28;20041;-75
2021/01/20 08:37:32;;;;;;;15.88;3.25;;;12.10;91.50;;;;;;5033181;28;20088;-75
2021/01/20 08:40:01;;;;;;;17.42;3.20;;;12.10;91.50;;;;;;5033461;28;20328;-75
2021/01/20 08:42:35;;;;;;;17.23;2.80;;;12.00;91.40;;;;;;5033236;28;20095;-75
2021/01/20 08:45:12;;;;;;;12.57;3.20;;;12.20;91.40;;;;;;5033679;28;20038;-76
2021/01/20 08:47:48;;;;;;;12.82;3.15;;;12.30;91.40;;;;;;5033142;28;20079;-75
2021/01/20 08:50:17;;;;;;;14.88;3.10;;;12.20;91.40;;;;;;5033639;28;20041;-75
2021/01/20 08:52:51;;;;;;;14.82;3.17;;;12.20;91.40;;;;;;5032409;28;20124;-75
2021/01/20 08:55:25;;;;;;;15.93;3.13;;;12.30;91.40;;;;;;5033716;28;20037;-75
2021/01/20 08:58:22;;;;;;;16.55;3.40;;;12.40;91.30;;;;;;5032629;28;20037;-75
2021/01/20 09:00:58;;;;;;;17.70;3.40;;;12.40;91.20;;;;;;5033152;28;20045;-75
2021/01/20 09:03:28;;;;;;;16.88;3.22;;;12.40;91.40;;;;;;5033218;28;20053;-76
2021/01/20 09:05:56;;;;;;;13.23;2.92;;;12.60;91.20;;;;;;5033074;28;20120;-75
2021/01/20 09:08:23;;;;;;;16.75;3.38;;;12.50;91.10;;;;;;5052997;28;20099;-75
2021/01/20 09:10:49;;;;;;;15.15;3.20;;;12.60;91.10;;;;;;5041451;28;20171;-75
2021/01/20 09:13:17;;;;;;;16.38;3.40;;;12.70;91.10;;;;;;5032829;28;20049;-75
2021/01/20 09:15:44;;;;;;;12.93;3.40;;;12.70;91.00;;;;;;5048360;28;20037;-75
2021/01/20 09:18:10;;;;;;;14.77;2.83;;;12.80;90.90;;;;;;5052462;28;20048;-75
2021/01/20 09:20:37;;;;;;;19.23;3.50;;;12.80;90.90;;;;;;5052805;28;20025;-75
2021/01/20 09:23:03;;;;;;;17.45;3.30;;;13.00;90.80;;;;;;5052912;28;20055;-75
2021/01/20 09:25:30;;;;;;;13.07;3.40;;;13.00;90.60;;;;;;5053078;28;20060;-75
2021/01/20 09:27:56;;;;;;;16.88;2.92;;;13.00;90.50;;;;;;5053290;28;20071;-75
2021/01/20 09:30:22;;;;;;;13.18;2.92;;;13.10;90.50;;;;;;5053286;28;20037;-76
2021/01/20 09:32:48;;;;;;;16.33;3.40;;;13.10;90.50;;;;;;5053007;28;20492;-75
2021/01/20 09:35:16;;;;;;;14.15;3.33;;;13.30;90.40;;;;;;5053123;28;20068;-76
2021/01/20 09:37:43;;;;;;;17.23;3.53;;;13.40;90.50;;;;;;5052862;28;20119;-76
2021/01/20 09:40:11;;;;;;;18.98;3.90;;;13.50;90.20;;;;;;5053258;28;20044;-76
2021/01/20 09:42:39;;;;;;;17.33;3.63;;;13.80;90.20;;;;;;5052987;28;20204;-77
2021/01/20 09:45:07;;;;;;;16.20;3.95;;;14.00;90.00;;;;;;5053187;28;20477;-76
2021/01/20 09:47:35;;;;;;;17.75;4.28;;;14.10;89.70;;;;;;5051345;28;20489;-76
2021/01/20 09:50:02;;;;;;;17.25;4.00;;;14.20;89.20;;;;;;5051800;28;20126;-76
2021/01/20 09:52:28;;;;;;;16.58;3.70;;;14.30;88.50;;;;;;5053128;28;20069;-76
2021/01/20 09:54:55;;;;;;;15.40;4.20;;;14.20;88.10;;;;;;5053011;28;20037;-76
2021/01/20 09:57:22;;;;;;;17.48;4.18;;;14.20;88.20;;;;;;5052982;28;20056;-76
2021/01/20 09:59:48;;;;;;;18.70;4.90;;;14.20;87.90;;;;;;5052956;28;20075;-76
2021/01/20 10:02:14;;;;;;;19.20;4.38;;;14.20;87.90;;;;;;5052936;28;20095;-76
2021/01/20 10:04:41;;;;;;;16.63;3.60;;;14.20;87.80;;;;;;5053165;28;20040;-76
2021/01/20 10:07:08;;;;;;;14.50;3.75;;;14.30;87.70;;;;;;5053083;28;20528;-76
2021/01/20 10:09:34;;;;;;;17.10;4.03;;;14.20;87.60;;;;;;5055529;28;20041;-76
2021/01/20 10:12:00;;;;;;;18.98;4.45;;;14.30;87.60;;;;;;5036968;28;20374;-76
2021/01/20 10:14:26;;;;;;;17.30;4.05;;;14.40;87.30;;;;;;5036701;28;20454;-75
2021/01/20 10:16:52;;;;;;;13.95;4.07;;;14.30;87.80;;;;;;5036786;28;20033;-76
2021/01/20 10:19:19;;;;;;;16.98;4.40;;;14.50;87.00;;;;;;5036939;28;20067;-76
2021/01/20 10:21:45;;;;;;;18.30;4.20;;;14.40;86.70;;;;;;5036269;28;20045;-75
2021/01/20 10:24:11;;;;;;;20.70;4.72;;;14.50;86.70;;;;;;5036270;28;20428;-76
2021/01/20 10:26:38;;;;;;;16.17;4.32;;;14.40;86.50;;;;;;5036079;28;20497;-76
2021/01/20 10:29:05;;;;;;;16.20;4.32;;;14.40;86.30;;;;;;5036326;28;20045;-76
2021/01/20 10:31:32;;;;;;;14.93;4.15;;;14.20;86.20;;;;;;5035386;28;20041;-76
2021/01/20 10:34:02;;;;;;;19.10;4.88;;;14.30;86.10;;;;;;5040270;28;20060;-76
2021/01/20 10:36:28;;;;;;;17.20;4.72;;;14.20;85.90;;;;;;5046188;28;20060;-76
2021/01/20 10:38:54;;;;;;;17.30;4.43;;;14.20;86.10;;;;;;5044889;28;20033;-76
2021/01/20 10:41:24;;;;;;;17.77;4.72;;;14.10;85.90;;;;;;5055820;28;20091;-76
2021/01/20 10:43:51;;;;;;;16.80;4.70;;;13.80;85.90;;;;;;5052112;28;20057;-76
2021/01/20 10:46:18;;;;;;;18.88;4.60;;;13.90;86.00;;;;;;5045090;28;20512;-75
2021/01/20 10:48:44;;;;;;;16.58;4.68;;;14.10;86.40;;;;;;5045881;28;20037;-76
2021/01/20 10:51:10;;;;;;;21.10;5.15;;;13.80;86.20;;;;;;5045726;28;20063;-76
2021/01/20 10:53:40;;;;;;;16.67;5.00;;;13.80;86.40;;;;;;5054815;28;20044;-76
2021/01/20 10:56:07;;;;;;;22.75;5.40;;;13.60;86.20;;;;;;5054341;28;20055;-76
2021/01/20 10:58:33;;;;;;;18.60;4.95;;;13.70;86.30;;;;;;5053526;28;20094;-76
2021/01/20 11:00:59;;;;;;;21.08;5.22;;;13.50;86.40;;;;;;5034130;28;20091;-76
2021/01/20 11:03:25;;;;;;;22.00;5.60;;;13.50;86.50;;;;;;5034606;28;20572;-76
2021/01/20 11:05:51;;;;;;;17.77;5.10;;;13.40;86.50;;;;;;5044282;28;20113;-76
2021/01/20 11:08:17;;;;;;;20.75;4.90;;;13.40;86.60;;;;;;5042045;28;20116;-75
2021/01/20 11:10:43;;;;;;;17.67;5.40;;;13.30;86.50;;;;;;5045351;28;20064;-76
2021/01/20 11:13:09;;;;;;;19.13;5.43;;;13.30;86.60;;;;;;5045475;28;20041;-76
2021/01/20 11:15:39;;;;;;;20.45;4.78;;;13.40;86.70;;;;;;5044012;28;20052;-76
2021/01/20 11:18:06;;;;;;;17.70;5.57;;;13.20;86.70;;;;;;5044240;28;20534;-75
2021/01/20 11:20:33;;;;;;;18.65;5.25;;;13.20;86.80;;;;;;5044435;28;20036;-75
2021/01/20 11:22:59;;;;;;;14.35;5.07;;;13.20;87.00;;;;;;5043526;28;20136;-76
2021/01/20 11:25:25;;;;;;;20.77;5.32;;;13.00;86.90;;;;;;5055402;28;20059;-75
2021/01/20 11:27:51;;;;;;;22.20;6.07;;;13.10;87.00;;;;;;5055407;28;20506;-75
2021/01/20 11:30:18;;;;;;;17.60;5.53;;;13.10;87.10;;;;;;5054632;28;20057;-75
2021/01/20 11:32:44;;;;;;;22.27;5.72;;;13.00;87.00;;;;;;5054387;28;20072;-74
2021/01/20 11:35:12;;;;;;;24.20;6.10;;;13.00;87.20;;;;;;5055733;28;20070;-74
2021/01/20 11:37:37;;;;;;;23.17;6.95;;;13.00;87.20;;;;;;5054162;28;20045;-73
2021/01/20 11:40:05;;;;;;;22.95;6.47;;;12.90;87.30;;;;;;5055127;28;20040;-73
2021/01/20 11:42:31;;;;;;;20.65;6.22;;;13.00;87.30;;;;;;5054543;28;20044;-74
2021/01/20 11:44:57;;;;;;;20.90;6.07;;;13.00;87.20;;;;;;5055011;28;20047;-73
2021/01/20 11:47:23;;;;;;;22.05;5.93;;;12.90;87.30;;;;;;5055035;28;20033;-73
2021/01/20 11:49:50;;;;;;;21.38;6.40;;;13.00;87.20;;;;;;5054881;28;20047;-73
2021/01/20 11:52:17;;;;;;;19.50;5.82;;;12.90;87.20;;;;;;5055175;28;20194;-73
2021/01/20 11:54:43;;;;;;;23.17;6.60;;;12.90;87.20;;;;;;5054887;28;20122;-72
2021/01/20 11:57:09;;;;;;;23.48;5.88;;;12.90;87.30;;;;;;5055124;28;20044;-73
2021/01/20 11:59:35;;;;;;;29.63;6.93;;;12.80;87.30;;;;;;5055096;28;20132;-74
2021/01/20 12:02:01;;;;;;;19.45;6.05;;;12.90;87.50;;;;;;5053973;28;20468;-74
2021/01/20 12:04:27;;;;;;;21.55;6.22;;;13.00;87.60;;;;;;5054938;28;20115;-74
2021/01/20 12:06:53;;;;;;;22.98;6.25;;;13.00;87.50;;;;;;5054827;28;20048;-74
2021/01/20 12:09:21;;;;;;;20.50;6.22;;;13.10;87.50;;;;;;5054520;28;20094;-74
2021/01/20 12:11:48;;;;;;;21.08;5.90;;;13.30;87.60;;;;;;5054914;28;20033;-75
2021/01/20 12:14:14;;;;;;;17.88;5.90;;;13.40;87.20;;;;;;5039832;28;20048;-74
2021/01/20 12:16:41;;;;;;;19.80;6.03;;;13.60;87.30;;;;;;5044947;28;20029;-75
2021/01/20 12:19:08;;;;;;;16.83;5.82;;;13.70;87.00;;;;;;5041471;28;20067;-75
2021/01/20 12:21:34;;;;;;;19.60;5.47;;;13.90;87.00;;;;;;5054217;28;20044;-75
2021/01/20 12:24:00;;;;;;;18.33;5.22;;;13.70;86.50;;;;;;5050634;28;20041;-75
2021/01/20 12:26:26;;;;;;;19.92;5.90;;;13.80;86.40;;;;;;5033116;28;20049;-74
2021/01/20 12:28:52;;;;;;;18.42;5.80;;;13.80;86.10;;;;;;5033441;28;20049;-74
2021/01/20 12:31:18;;;;;;;19.02;5.47;;;13.90;86.30;;;;;;5033977;28;20041;-74
2021/01/20 12:33:44;;;;;;;25.42;5.75;;;13.80;86.00;;;;;;5039759;28;20143;-75
2021/01/20 12:36:10;;;;;;;18.88;5.40;;;13.80;86.10;;;;;;5041711;28;20068;-76
2021/01/20 12:38:36;;;;;;;19.35;5.90;;;13.80;86.00;;;;;;5044553;28;20075;-77
2021/01/20 12:41:02;;;;;;;15.23;5.60;;;13.70;85.80;;;;;;5036390;28;20500;-78
2021/01/20 12:43:28;;;;;;;14.60;4.90;;;13.60;85.70;;;;;;5041460;28;20135;-77
2021/01/20 12:45:54;;;;;;;18.52;5.32;;;13.50;85.60;;;;;;5041546;28;20116;-77